Time;durP1;ratioP1;P1;durP2;ratioP2;P2;SDS_P1;SDS_P2;PMS_P1;PMS_P2;Temp;Humidity;BMP_temperature;BMP_pressure;BME280_temperature;BME280_humidity;BME280_pressure;Samples;Min_cycle;Max_cycle;Signal;HPM_P1;HPM_P2
2024/01/12 00:00:21;;;;;;;22.73;8.60;;;-0.70;99.90;;;;;;4180572;28;20209;-75
2024/01/12 00:02:22;;;;;;;27.03;10.13;;;-0.70;99.90;;;;;;4174768;28;20480;-75
2024/01/12 00:04:24;;;;;;;26.93;9.20;;;-0.60;99.90;;;;;;4180209;28;20447;-75
2024/01/12 00:06:26;;;;;;;28.53;9.67;;;-0.60;99.90;;;;;;4174929;28;20491;-76
2024/01/12 00:08:28;;;;;;;26.03;8.50;;;-0.60;99.90;;;;;;4176729;28;20997;-75
2024/01/12 00:10:30;;;;;;;25.03;8.40;;;-0.60;99.90;;;;;;4179113;28;20527;-75
2024/01/12 00:12:32;;;;;;;27.47;8.93;;;-0.60;99.90;;;;;;4176010;28;20499;-75
2024/01/12 00:14:35;;;;;;;24.93;9.00;;;-0.60;99.90;;;;;;4179100;28;20435;-75
2024/01/12 00:16:37;;;;;;;23.17;8.33;;;-0.60;99.90;;;;;;4174119;28;20474;-76
2024/01/12 00:18:39;;;;;;;26.03;9.03;;;-0.60;99.90;;;;;;4184432;28;21006;-75
2024/01/12 00:20:43;;;;;;;26.13;8.33;;;-0.60;99.90;;;;;;4158402;28;20472;-76
2024/01/12 00:22:45;;;;;;;20.80;8.00;;;-0.60;99.90;;;;;;4180036;28;20483;-75
2024/01/12 00:24:48;;;;;;;21.30;7.93;;;-0.60;99.90;;;;;;4176660;28;20510;-75
2024/01/12 00:26:50;;;;;;;24.27;7.67;;;-0.60;99.90;;;;;;4175334;28;20994;-75
2024/01/12 00:28:51;;;;;;;16.40;6.93;;;-0.60;99.90;;;;;;4188871;28;20446;-76
2024/01/12 00:30:55;;;;;;;23.17;8.07;;;-0.60;99.90;;;;;;4188784;28;20485;-75
2024/01/12 00:32:57;;;;;;;21.40;7.40;;;-0.60;99.90;;;;;;4175691;28;20225;-76
2024/01/12 00:34:59;;;;;;;22.00;7.80;;;-0.60;99.90;;;;;;4182284;28;20468;-75
2024/01/12 00:37:01;;;;;;;26.10;8.70;;;-0.60;99.90;;;;;;4179859;28;20473;-75
2024/01/12 00:39:03;;;;;;;28.97;8.07;;;-0.60;99.90;;;;;;4181703;28;20796;-75
2024/01/12 00:41:05;;;;;;;22.83;7.20;;;-0.60;99.90;;;;;;4177884;28;20909;-75
2024/01/12 00:43:07;;;;;;;16.60;7.00;;;-0.60;99.90;;;;;;4179008;28;20847;-75
2024/01/12 00:45:10;;;;;;;21.17;7.17;;;-0.60;99.90;;;;;;4179330;28;20445;-77
2024/01/12 00:47:13;;;;;;;20.63;7.27;;;-0.60;99.90;;;;;;4173252;28;20546;-76
2024/01/12 00:49:14;;;;;;;17.97;6.67;;;-0.60;99.90;;;;;;4170309;28;20522;-79
2024/01/12 00:51:16;;;;;;;21.33;6.27;;;-0.60;99.90;;;;;;4175279;28;20927;-76
2024/01/12 00:53:18;;;;;;;21.60;7.17;;;-0.60;99.90;;;;;;4174659;28;20617;-75
2024/01/12 00:55:20;;;;;;;22.20;6.97;;;-0.60;99.90;;;;;;4173315;28;20464;-75
2024/01/12 00:57:23;;;;;;;17.57;6.07;;;-0.60;99.90;;;;;;4152212;28;20479;-77
2024/01/12 00:59:25;;;;;;;16.17;5.87;;;-0.60;99.90;;;;;;4177197;28;20472;-75
2024/01/12 01:01:27;;;;;;;13.37;5.83;;;-0.60;99.90;;;;;;4182235;28;20922;-76
2024/01/12 01:03:30;;;;;;;17.57;6.00;;;-0.60;99.90;;;;;;4170007;28;20480;-76
2024/01/12 01:05:32;;;;;;;16.60;6.27;;;-0.60;99.90;;;;;;4175731;28;20480;-79
2024/01/12 01:07:34;;;;;;;16.03;6.07;;;-0.60;99.90;;;;;;4184104;28;20451;-76
2024/01/12 01:09:36;;;;;;;18.30;6.57;;;-0.60;99.90;;;;;;4176940;28;20450;-76
2024/01/12 01:11:38;;;;;;;16.47;6.13;;;-0.60;99.90;;;;;;4176799;28;20499;-75
2024/01/12 01:13:40;;;;;;;18.30;6.30;;;-0.60;99.90;;;;;;4160610;28;20447;-76
2024/01/12 01:15:42;;;;;;;15.70;6.13;;;-0.60;99.90;;;;;;4172073;28;20483;-75
2024/01/12 01:17:43;;;;;;;16.47;5.87;;;-0.60;99.90;;;;;;4177156;28;20948;-75
2024/01/12 01:19:47;;;;;;;14.57;5.50;;;-0.70;99.90;;;;;;4176319;28;20446;-77
2024/01/12 01:21:49;;;;;;;15.17;5.37;;;-0.60;99.90;;;;;;4175959;28;20451;-76
2024/01/12 01:23:51;;;;;;;14.10;5.00;;;-0.60;99.90;;;;;;4177870;28;20479;-77
2024/01/12 01:25:54;;;;;;;17.07;5.70;;;-0.70;99.90;;;;;;4189735;28;20558;-76
2024/01/12 01:27:56;;;;;;;12.83;5.20;;;-0.70;99.90;;;;;;4175143;28;20447;-75
2024/01/12 01:29:58;;;;;;;12.40;5.40;;;-0.70;99.90;;;;;;4177269;28;20970;-78
2024/01/12 01:32:00;;;;;;;11.17;4.70;;;-0.50;99.90;;;;;;4170255;28;20452;-75
2024/01/12 01:34:01;;;;;;;11.03;4.40;;;-0.70;99.90;;;;;;4174876;28;20448;-76
2024/01/12 01:36:06;;;;;;;17.60;6.33;;;-0.70;99.90;;;;;;4177591;28;20470;-75
2024/01/12 01:38:08;;;;;;;16.43;5.90;;;-0.70;99.90;;;;;;4175566;28;20949;-77
2024/01/12 01:40:09;;;;;;;16.40;5.83;;;-0.70;99.90;;;;;;4176257;28;20463;-77
2024/01/12 01:42:11;;;;;;;19.77;6.17;;;-0.70;99.90;;;;;;4175647;28;20456;-75
2024/01/12 01:44:13;;;;;;;19.53;6.47;;;-0.60;99.90;;;;;;4175357;28;20487;-75
2024/01/12 01:46:15;;;;;;;18.20;6.13;;;-0.70;99.90;;;;;;4173849;28;20991;-76
2024/01/12 01:48:17;;;;;;;17.83;6.60;;;-0.60;99.90;;;;;;4174841;28;20451;-76
2024/01/12 01:50:19;;;;;;;18.93;6.47;;;-0.60;99.90;;;;;;4177704;28;20448;-75
2024/01/12 01:52:27;;;;;;;17.93;6.53;;;-0.60;99.90;;;;;;4177191;28;20502;-75
2024/01/12 01:54:29;;;;;;;15.43;6.10;;;-0.70;99.90;;;;;;4177399;28;20443;-75
2024/01/12 01:56:30;;;;;;;15.27;6.00;;;-0.60;99.90;;;;;;4173362;28;20526;-76
2024/01/12 01:58:34;;;;;;;16.77;6.00;;;-0.70;99.90;;;;;;4182743;28;21155;-75
2024/01/12 02:00:36;;;;;;;19.40;6.60;;;-0.60;99.90;;;;;;4156875;28;20490;-75
2024/01/12 02:02:38;;;;;;;18.53;6.03;;;-0.70;99.90;;;;;;4178718;28;20500;-76
2024/01/12 02:04:40;;;;;;;16.37;5.77;;;-0.70;99.90;;;;;;4179231;28;20451;-78
2024/01/12 02:06:42;;;;;;;14.93;5.97;;;-0.70;99.90;;;;;;4176299;28;20557;-75
2024/01/12 02:08:46;;;;;;;14.63;5.73;;;-0.70;99.90;;;;;;4178947;28;20460;-75
2024/01/12 02:10:48;;;;;;;12.77;5.27;;;-0.70;99.90;;;;;;4179546;28;20475;-76
2024/01/12 02:12:50;;;;;;;17.80;6.23;;;-0.70;99.90;;;;;;4177958;28;20442;-76
2024/01/12 02:14:51;;;;;;;16.00;6.37;;;-0.70;99.90;;;;;;4179770;28;20455;-75
2024/01/12 02:16:53;;;;;;;22.13;7.30;;;-0.70;99.90;;;;;;4177971;28;20464;-75
2024/01/12 02:18:55;;;;;;;17.73;6.57;;;-0.70;99.90;;;;;;4180743;28;20221;-75
2024/01/12 02:20:59;;;;;;;20.73;6.90;;;-0.70;99.90;;;;;;4187515;28;20468;-76
2024/01/12 02:23:01;;;;;;;16.57;6.07;;;-0.70;99.90;;;;;;4182262;28;20924;-76
2024/01/12 02:25:04;;;;;;;18.70;6.67;;;-0.70;99.90;;;;;;4163334;28;20484;-77
2024/01/12 02:27:06;;;;;;;20.17;7.40;;;-0.70;99.90;;;;;;4182660;28;20462;-76
2024/01/12 02:29:08;;;;;;;20.47;7.00;;;-0.70;99.90;;;;;;4188202;28;20494;-75
2024/01/12 02:31:10;;;;;;;19.07;6.80;;;-0.70;99.90;;;;;;4182550;28;20534;-75
2024/01/12 02:33:12;;;;;;;15.57;6.57;;;-0.70;99.90;;;;;;4183862;28;20508;-80
2024/01/12 02:35:14;;;;;;;20.20;7.20;;;-0.70;99.90;;;;;;4184209;28;20444;-76
2024/01/12 02:37:18;;;;;;;20.37;7.20;;;-0.70;99.90;;;;;;4181119;28;20480;-77
2024/01/12 02:39:19;;;;;;;19.10;6.50;;;-0.80;99.90;;;;;;4184854;28;20464;-77
2024/01/12 02:41:22;;;;;;;24.87;7.43;;;-0.70;99.90;;;;;;4184273;28;20452;-78
2024/01/12 02:43:24;;;;;;;20.10;6.83;;;-0.80;99.90;;;;;;4172400;28;20643;-77
2024/01/12 02:45:26;;;;;;;22.13;7.50;;;-0.70;99.90;;;;;;4183884;28;20513;-76
2024/01/12 02:47:28;;;;;;;21.73;7.43;;;-0.80;99.90;;;;;;4183493;28;20455;-76
2024/01/12 02:49:30;;;;;;;20.23;7.20;;;-0.70;99.90;;;;;;4179801;28;20455;-79
2024/01/12 02:51:31;;;;;;;23.07;7.77;;;-0.80;99.90;;;;;;4181911;28;20469;-77
2024/01/12 02:53:35;;;;;;;21.17;8.17;;;-0.80;99.90;;;;;;4185876;28;20442;-77
2024/01/12 02:55:39;;;;;;;25.53;7.97;;;-0.80;99.90;;;;;;4187259;28;20499;-78
2024/01/12 02:57:41;;;;;;;20.97;7.40;;;-0.80;99.90;;;;;;4185600;28;20702;-75
2024/01/12 02:59:45;;;;;;;25.63;8.43;;;-0.80;99.90;;;;;;4189112;28;20438;-75
2024/01/12 03:01:47;;;;;;;20.80;7.77;;;-0.80;99.90;;;;;;4186191;28;20466;-75
2024/01/12 03:03:49;;;;;;;21.50;8.20;;;-0.80;99.90;;;;;;4196798;28;20524;-78
2024/01/12 03:05:51;;;;;;;22.43;8.13;;;-0.70;99.90;;;;;;4208191;28;20470;-77
2024/01/12 03:07:53;;;;;;;25.00;7.63;;;-0.80;99.90;;;;;;4208436;28;20443;-78
2024/01/12 03:09:58;;;;;;;28.87;9.20;;;-0.80;99.90;;;;;;4194621;28;20475;-78
2024/01/12 03:12:00;;;;;;;21.23;7.33;;;-0.80;99.90;;;;;;4191784;28;20525;-76
2024/01/12 03:14:02;;;;;;;29.03;7.80;;;-0.80;99.90;;;;;;4189656;28;20450;-76
2024/01/12 03:16:05;;;;;;;23.27;8.07;;;-0.80;99.90;;;;;;4188022;28;20491;-77
2024/01/12 03:18:06;;;;;;;20.27;7.93;;;-0.90;99.90;;;;;;4181844;28;20951;-75
2024/01/12 03:20:08;;;;;;;29.03;9.03;;;-0.90;99.90;;;;;;4182287;28;20555;-76
2024/01/12 03:22:10;;;;;;;26.37;8.20;;;-0.90;99.90;;;;;;4179245;28;20212;-77
2024/01/12 03:24:12;;;;;;;25.17;7.87;;;-0.60;99.90;;;;;;4180546;28;20489;-78
2024/01/12 03:26:16;;;;;;;19.47;6.90;;;-0.90;99.90;;;;;;4185893;28;20845;-77
2024/01/12 03:28:18;;;;;;;26.77;8.63;;;-0.90;99.90;;;;;;4184223;28;20450;-77
2024/01/12 03:30:20;;;;;;;23.20;7.47;;;-0.90;99.90;;;;;;4191339;28;20443;-75
2024/01/12 03:32:22;;;;;;;26.33;8.03;;;-0.90;99.90;;;;;;4194101;28;20468;-76
2024/01/12 03:34:24;;;;;;;23.73;8.20;;;-0.90;99.90;;;;;;4180752;28;20440;-76
2024/01/12 03:36:27;;;;;;;27.27;8.90;;;-0.90;99.90;;;;;;4164519;28;20979;-76
2024/01/12 03:38:29;;;;;;;23.73;8.57;;;-0.90;99.90;;;;;;4175123;28;20459;-78
2024/01/12 03:40:31;;;;;;;23.17;8.40;;;-0.90;99.90;;;;;;4176484;28;20448;-76
2024/01/12 03:42:34;;;;;;;30.63;9.97;;;-0.90;99.90;;;;;;4176752;28;20854;-77
2024/01/12 03:44:36;;;;;;;27.67;8.80;;;-0.80;99.90;;;;;;4179812;28;21041;-76
2024/01/12 03:46:38;;;;;;;20.53;8.20;;;-0.70;99.90;;;;;;4178424;28;20985;-75
2024/01/12 03:48:41;;;;;;;32.30;10.03;;;-0.90;99.90;;;;;;4185057;28;20465;-76
2024/01/12 03:50:43;;;;;;;22.83;9.07;;;-0.80;99.90;;;;;;4184078;28;20443;-79
2024/01/12 03:52:45;;;;;;;27.60;9.30;;;-0.90;99.90;;;;;;4180417;28;20883;-77
2024/01/12 03:54:46;;;;;;;25.63;9.03;;;-0.90;99.90;;;;;;4177698;28;20456;-78
2024/01/12 03:56:48;;;;;;;32.10;9.93;;;-0.90;99.90;;;;;;4179147;28;20467;-76
2024/01/12 03:58:51;;;;;;;26.43;8.53;;;-0.90;99.90;;;;;;4178781;28;20681;-75
2024/01/12 04:00:53;;;;;;;26.90;9.10;;;-0.90;99.90;;;;;;4184460;28;20863;-77
2024/01/12 04:02:57;;;;;;;27.63;9.60;;;-0.90;99.90;;;;;;4179293;28;20529;-77
2024/01/12 04:04:59;;;;;;;28.27;9.90;;;-0.80;99.90;;;;;;4182723;28;20522;-76
2024/01/12 04:07:01;;;;;;;25.83;8.60;;;-0.90;99.90;;;;;;4174139;28;20519;-76
2024/01/12 04:09:03;;;;;;;33.70;10.73;;;-0.90;99.90;;;;;;4178525;28;20451;-75
2024/01/12 04:11:05;;;;;;;32.20;9.70;;;-0.90;99.90;;;;;;4178466;28;21116;-76
2024/01/12 04:13:08;;;;;;;34.20;10.87;;;-0.90;99.90;;;;;;4183136;28;20923;-75
2024/01/12 04:15:11;;;;;;;26.33;9.63;;;-0.90;99.90;;;;;;4182269;28;21234;-75
2024/01/12 04:17:13;;;;;;;28.73;9.20;;;-0.90;99.90;;;;;;4176673;28;20454;-76
2024/01/12 04:19:14;;;;;;;29.73;10.27;;;-0.90;99.90;;;;;;4173652;28;20470;-76
2024/01/12 04:21:16;;;;;;;28.00;10.10;;;-0.90;99.90;;;;;;4179542;28;20463;-75
2024/01/12 04:23:18;;;;;;;22.13;8.23;;;-0.90;99.90;;;;;;4175736;28;20476;-77
2024/01/12 04:25:20;;;;;;;25.60;9.07;;;-0.80;99.90;;;;;;4154618;28;20456;-78
2024/01/12 04:27:21;;;;;;;25.70;8.97;;;-0.90;99.90;;;;;;4183516;28;20808;-79
2024/01/12 04:29:23;;;;;;;28.17;9.23;;;-0.90;99.90;;;;;;4178955;28;20446;-76
2024/01/12 04:31:26;;;;;;;22.30;7.73;;;-0.90;99.90;;;;;;4183158;28;20681;-76
2024/01/12 04:33:30;;;;;;;23.03;7.93;;;-0.90;99.90;;;;;;4178452;28;20474;-76
2024/01/12 04:35:32;;;;;;;22.33;8.63;;;-0.90;99.90;;;;;;4177424;28;21188;-76
2024/01/12 04:37:34;;;;;;;24.47;8.37;;;-0.90;99.90;;;;;;4168501;28;20994;-76
2024/01/12 04:39:38;;;;;;;26.70;8.93;;;-0.90;99.90;;;;;;4184444;28;20465;-78
2024/01/12 04:41:40;;;;;;;26.20;8.60;;;-0.90;99.90;;;;;;4160104;28;20937;-81
2024/01/12 04:43:42;;;;;;;26.23;8.17;;;-0.80;99.90;;;;;;4183772;28;20494;-80
2024/01/12 04:45:44;;;;;;;26.23;8.27;;;-0.90;99.90;;;;;;4180499;28;20475;-77
2024/01/12 04:47:47;;;;;;;24.53;8.17;;;-0.40;99.90;;;;;;4177341;28;20495;-75
2024/01/12 04:49:49;;;;;;;20.93;7.60;;;-0.90;99.90;;;;;;4178014;28;20508;-77
2024/01/12 04:51:51;;;;;;;23.07;8.97;;;-0.80;99.90;;;;;;4181022;28;20584;-75
2024/01/12 04:53:53;;;;;;;25.23;8.77;;;-0.90;99.90;;;;;;4177902;28;20438;-78
2024/01/12 04:55:55;;;;;;;24.33;8.30;;;-0.80;99.90;;;;;;4176870;28;20465;-75
2024/01/12 04:57:57;;;;;;;27.63;9.63;;;-0.80;99.90;;;;;;4181416;28;20471;-75
2024/01/12 04:59:59;;;;;;;29.80;10.30;;;-0.80;99.90;;;;;;4179830;28;20948;-74
2024/01/12 05:01:59;;;;;;;34.33;10.90;;;-0.80;99.90;;;;;;4173011;28;20447;-75
2024/01/12 05:04:03;;;;;;;29.87;9.93;;;-0.80;99.90;;;;;;4184303;28;20540;-76
2024/01/12 05:06:05;;;;;;;32.73;8.87;;;-0.80;99.90;;;;;;4181139;28;20298;-74
2024/01/12 05:08:07;;;;;;;31.97;9.93;;;-0.80;99.90;;;;;;4172650;28;20462;-78
2024/01/12 05:10:09;;;;;;;29.07;8.80;;;-0.80;99.90;;;;;;4175777;28;20460;-77
2024/01/12 05:12:11;;;;;;;23.43;7.90;;;-0.90;99.90;;;;;;4168218;28;20456;-76
2024/01/12 05:14:12;;;;;;;28.33;8.27;;;-0.90;99.90;;;;;;4175781;28;20443;-76
2024/01/12 05:16:14;;;;;;;26.17;8.37;;;-0.80;99.90;;;;;;4179170;28;20489;-76
2024/01/12 05:18:15;;;;;;;29.47;8.57;;;-0.80;99.90;;;;;;4180722;28;20450;-78
2024/01/12 05:20:21;;;;;;;26.90;7.43;;;-0.80;99.90;;;;;;4179148;28;20483;-75
2024/01/12 05:22:23;;;;;;;27.97;9.40;;;-0.90;99.90;;;;;;4174735;28;20485;-76
2024/01/12 05:24:25;;;;;;;31.20;9.47;;;-0.80;99.90;;;;;;4175345;28;20488;-74
2024/01/12 05:26:27;;;;;;;37.10;9.30;;;-0.90;99.90;;;;;;4180992;28;20462;-74
2024/01/12 05:28:29;;;;;;;28.70;8.77;;;-0.80;99.90;;;;;;4190520;28;20444;-73
2024/01/12 05:30:30;;;;;;;37.80;10.77;;;-0.80;99.90;;;;;;4191397;28;20482;-76
2024/01/12 05:32:32;;;;;;;36.23;10.77;;;-0.80;99.90;;;;;;4191145;28;20447;-74
2024/01/12 05:34:34;;;;;;;28.93;10.37;;;-0.80;99.90;;;;;;4173056;28;20509;-76
2024/01/12 05:36:36;;;;;;;38.97;11.43;;;-0.80;99.90;;;;;;4185222;28;20469;-75
2024/01/12 05:38:38;;;;;;;34.30;10.97;;;-0.90;99.90;;;;;;4188220;28;20463;-76
2024/01/12 05:40:40;;;;;;;37.53;11.07;;;-0.90;99.90;;;;;;4163298;28;20499;-76
2024/01/12 05:42:42;;;;;;;39.13;10.47;;;-0.90;99.90;;;;;;4177911;28;21051;-75
2024/01/12 05:44:44;;;;;;;30.77;10.30;;;-0.80;99.90;;;;;;4180531;28;20510;-76
2024/01/12 05:46:45;;;;;;;34.07;10.63;;;-0.80;99.90;;;;;;4173848;28;20491;-75
2024/01/12 05:48:50;;;;;;;35.97;10.70;;;-0.80;99.90;;;;;;4178413;28;20447;-76
2024/01/12 05:50:54;;;;;;;34.27;11.23;;;-0.80;99.90;;;;;;4158385;28;20214;-77
2024/01/12 05:52:58;;;;;;;34.73;11.47;;;-0.80;99.90;;;;;;4160653;28;20463;-76
2024/01/12 05:54:59;;;;;;;29.03;10.10;;;-0.80;99.90;;;;;;4179327;28;20930;-74
2024/01/12 05:57:01;;;;;;;29.90;9.87;;;-0.80;99.90;;;;;;4177298;28;20462;-76
2024/01/12 05:59:03;;;;;;;34.00;10.40;;;-0.90;99.90;;;;;;4180032;28;20684;-77
2024/01/12 06:01:04;;;;;;;37.37;10.47;;;-0.90;99.90;;;;;;4161724;28;20887;-77
2024/01/12 06:03:06;;;;;;;39.33;11.77;;;-0.90;99.90;;;;;;4180675;28;20927;-77
2024/01/12 06:05:08;;;;;;;31.43;11.60;;;-0.90;99.90;;;;;;4179083;28;21778;-76
2024/01/12 06:07:10;;;;;;;31.03;9.77;;;-0.90;99.90;;;;;;4181531;28;20861;-76
2024/01/12 06:09:13;;;;;;;33.33;9.70;;;-0.90;99.90;;;;;;4175997;28;20452;-75
2024/01/12 06:11:15;;;;;;;31.93;9.20;;;-0.90;99.90;;;;;;4183829;28;20509;-75
2024/01/12 06:13:17;;;;;;;32.33;9.83;;;-0.90;99.90;;;;;;4172994;28;21016;-75
2024/01/12 06:15:20;;;;;;;33.50;9.33;;;-0.90;99.90;;;;;;4173722;28;20508;-75
2024/01/12 06:17:22;;;;;;;37.60;10.80;;;-0.90;99.90;;;;;;4180105;28;20443;-75
2024/01/12 06:19:24;;;;;;;31.60;9.63;;;-0.90;99.90;;;;;;4170695;28;20445;-75
2024/01/12 06:21:26;;;;;;;35.27;9.00;;;-0.90;99.90;;;;;;4178302;28;20530;-75
2024/01/12 06:23:28;;;;;;;31.83;10.10;;;-0.90;99.90;;;;;;4174381;28;20499;-76
2024/01/12 06:25:36;;;;;;;28.10;9.77;;;-0.90;99.90;;;;;;4177230;28;20491;-77
2024/01/12 06:27:38;;;;;;;27.63;8.50;;;-0.90;99.90;;;;;;4149511;28;20486;-75
2024/01/12 06:29:40;;;;;;;31.20;9.43;;;-0.90;99.90;;;;;;4170964;28;20447;-76
2024/01/12 06:31:41;;;;;;;26.77;9.00;;;-0.90;99.90;;;;;;4180008;28;20447;-77
2024/01/12 06:33:43;;;;;;;26.47;8.37;;;-0.90;99.90;;;;;;4174454;28;20514;-76
2024/01/12 06:35:44;;;;;;;33.57;9.93;;;-0.90;99.90;;;;;;4178092;28;20459;-77
2024/01/12 06:37:46;;;;;;;31.17;9.03;;;-0.90;99.90;;;;;;4178018;28;20848;-76
2024/01/12 06:39:49;;;;;;;27.17;8.77;;;-0.90;99.90;;;;;;4173600;28;20210;-78
2024/01/12 06:41:52;;;;;;;26.33;8.97;;;-0.90;99.90;;;;;;4177170;28;20518;-75
2024/01/12 06:43:54;;;;;;;29.73;9.37;;;-0.90;99.90;;;;;;4174956;28;20461;-79
2024/01/12 06:45:56;;;;;;;31.73;10.27;;;-0.90;99.90;;;;;;4176703;28;20519;-81
2024/01/12 06:47:58;;;;;;;28.97;8.90;;;-1.00;99.90;;;;;;4183811;28;20518;-81
2024/01/12 06:49:59;;;;;;;34.83;9.30;;;-1.00;99.90;;;;;;4183832;28;20792;-79
2024/01/12 06:52:01;;;;;;;30.43;9.70;;;-1.00;99.90;;;;;;4186428;28;20485;-77
2024/01/12 06:54:04;;;;;;;28.50;9.20;;;-1.00;99.90;;;;;;4184965;28;20520;-79
2024/01/12 06:56:06;;;;;;;27.67;8.93;;;-1.00;99.90;;;;;;4162076;28;20513;-80
2024/01/12 06:58:10;;;;;;;29.20;9.40;;;-1.00;99.90;;;;;;4178953;28;20472;-81
2024/01/12 07:00:13;;;;;;;26.73;8.93;;;-0.80;99.90;;;;;;4175707;28;20450;-77
2024/01/12 07:02:14;;;;;;;28.20;8.67;;;-1.00;99.90;;;;;;4180032;28;20565;-79
2024/01/12 07:04:17;;;;;;;24.43;8.50;;;-1.00;99.90;;;;;;4181389;28;20445;-79
2024/01/12 07:06:19;;;;;;;22.50;8.00;;;-0.70;99.90;;;;;;4178387;28;21522;-80
2024/01/12 07:08:21;;;;;;;24.33;8.43;;;-0.90;99.90;;;;;;4174407;28;20925;-78
2024/01/12 07:10:23;;;;;;;24.90;9.10;;;-1.00;99.90;;;;;;4176774;28;20463;-79
2024/01/12 07:12:24;;;;;;;25.80;9.83;;;-0.90;99.90;;;;;;4177431;28;20463;-78
2024/01/12 07:14:27;;;;;;;26.33;9.03;;;-0.90;99.90;;;;;;4180079;28;21131;-79
2024/01/12 07:16:29;;;;;;;22.33;10.00;;;-0.90;99.90;;;;;;4176322;28;20241;-80
2024/01/12 07:18:31;;;;;;;24.43;9.37;;;-0.90;99.90;;;;;;4179741;28;20888;-78
2024/01/12 07:20:33;;;;;;;30.77;10.57;;;-0.90;99.90;;;;;;4178331;28;20443;-79
2024/01/12 07:22:34;;;;;;;33.30;14.30;;;-0.90;99.90;;;;;;4178838;28;20984;-79
2024/01/12 07:24:36;;;;;;;29.27;12.30;;;-0.90;99.90;;;;;;4182249;28;20483;-76
2024/01/12 07:26:38;;;;;;;29.07;10.63;;;-0.90;99.90;;;;;;4175312;28;20464;-77
2024/01/12 07:28:40;;;;;;;26.93;10.23;;;-0.90;99.90;;;;;;4181761;28;20474;-76
2024/01/12 07:30:43;;;;;;;28.07;10.87;;;-0.90;99.90;;;;;;4177543;28;20856;-77
2024/01/12 07:32:45;;;;;;;28.43;10.27;;;-0.90;99.90;;;;;;4173145;28;20859;-78
2024/01/12 07:34:46;;;;;;;29.37;10.73;;;-0.90;99.90;;;;;;4177620;28;20930;-78
2024/01/12 07:36:48;;;;;;;22.33;8.93;;;-0.90;99.90;;;;;;4179079;28;20482;-78
2024/01/12 07:38:50;;;;;;;27.97;9.97;;;-0.80;99.90;;;;;;4173702;28;20209;-77
2024/01/12 07:40:52;;;;;;;25.93;9.87;;;-0.90;99.90;;;;;;4115046;28;26065;-76
2024/01/12 07:42:54;;;;;;;28.13;10.50;;;-0.80;99.90;;;;;;4087481;28;97835;-76
2024/01/12 07:44:56;;;;;;;25.87;10.27;;;-0.80;99.90;;;;;;4135963;28;21286;-78
2024/01/12 07:47:48;;;;;;;25.13;9.07;;;-0.80;99.90;;;;;;4154790;27;156574;-76
2024/01/12 07:49:50;;;;;;;23.23;9.13;;;-0.80;99.90;;;;;;3976459;27;20244;-77
2024/01/12 07:51:52;;;;;;;26.07;9.80;;;-0.80;99.90;;;;;;4073493;28;20505;-77
2024/01/12 07:53:54;;;;;;;31.60;10.57;;;-0.80;99.90;;;;;;4158535;28;161239;-79
2024/01/12 07:55:55;;;;;;;24.83;9.40;;;-0.80;99.90;;;;;;4222114;28;20540;-80
2024/01/12 07:57:57;;;;;;;25.57;9.20;;;-0.10;99.90;;;;;;4219066;28;20469;-75
2024/01/12 07:59:59;;;;;;;25.50;9.20;;;-0.80;99.90;;;;;;4221706;28;20845;-79
2024/01/12 08:02:01;;;;;;;27.27;8.93;;;-0.60;99.90;;;;;;4169826;28;20469;-77
2024/01/12 08:04:05;;;;;;;26.73;9.70;;;-0.50;99.90;;;;;;4188956;27;20585;-77
2024/01/12 08:06:08;;;;;;;22.53;8.77;;;-0.70;99.90;;;;;;4181295;28;20488;-76
2024/01/12 08:08:11;;;;;;;25.73;9.97;;;-0.70;99.90;;;;;;4209935;28;20441;-75
2024/01/12 08:10:12;;;;;;;24.73;10.13;;;-0.70;99.90;;;;;;4208694;28;20454;-76
2024/01/12 08:12:14;;;;;;;25.40;9.90;;;-0.70;99.90;;;;;;4211267;28;20438;-76
2024/01/12 08:14:16;;;;;;;28.60;9.90;;;-0.70;99.90;;;;;;4209811;28;20508;-77
2024/01/12 08:16:18;;;;;;;26.70;9.73;;;-0.70;99.90;;;;;;4210744;28;20886;-75
2024/01/12 08:18:19;;;;;;;28.90;10.50;;;-0.70;99.90;;;;;;4210282;28;20988;-77
2024/01/12 08:20:22;;;;;;;37.27;13.00;;;-0.70;99.90;;;;;;4211692;28;20441;-75
2024/01/12 08:22:24;;;;;;;33.23;12.10;;;-0.70;99.90;;;;;;4206157;28;20464;-75
2024/01/12 08:24:27;;;;;;;29.70;11.33;;;-0.70;99.90;;;;;;4163094;28;20490;-77
2024/01/12 08:26:29;;;;;;;28.37;10.87;;;-0.70;99.90;;;;;;4180601;28;20544;-76
2024/01/12 08:28:31;;;;;;;30.50;11.03;;;-0.70;99.90;;;;;;4179821;28;20467;-76
2024/01/12 08:30:33;;;;;;;30.77;10.70;;;-0.60;99.90;;;;;;4196172;28;20467;-76
2024/01/12 08:32:35;;;;;;;30.97;11.73;;;-0.60;99.90;;;;;;4209016;28;20461;-78
2024/01/12 08:34:36;;;;;;;35.53;12.43;;;-0.60;99.90;;;;;;4211699;28;20458;-78
2024/01/12 08:36:40;;;;;;;30.97;10.87;;;-0.60;99.90;;;;;;4207243;28;20508;-77
2024/01/12 08:38:42;;;;;;;38.83;12.53;;;-0.60;99.90;;;;;;4210703;28;20485;-76
2024/01/12 08:40:44;;;;;;;39.47;14.23;;;-0.60;99.90;;;;;;4212605;28;20446;-77
2024/01/12 08:42:46;;;;;;;33.87;11.80;;;-0.60;99.90;;;;;;4210811;28;20458;-75
2024/01/12 08:44:47;;;;;;;30.17;11.90;;;-0.50;99.90;;;;;;4210627;28;20458;-78
2024/01/12 08:46:52;;;;;;;31.87;12.23;;;-0.60;99.90;;;;;;4206845;28;20483;-77
2024/01/12 08:48:55;;;;;;;40.93;12.93;;;-0.50;99.90;;;;;;4207534;28;20476;-75
2024/01/12 08:50:58;;;;;;;35.13;12.57;;;-0.60;99.90;;;;;;4210536;28;20462;-77
2024/01/12 08:53:01;;;;;;;40.43;13.90;;;-0.50;99.90;;;;;;4207988;28;20452;-77
2024/01/12 08:55:04;;;;;;;39.63;13.63;;;-0.50;99.90;;;;;;4205887;28;20465;-77
2024/01/12 08:57:07;;;;;;;32.07;12.50;;;-0.50;99.90;;;;;;4204282;28;20506;-77
2024/01/12 08:59:09;;;;;;;39.87;12.90;;;-0.40;99.90;;;;;;4195096;28;21039;-75
2024/01/12 09:01:12;;;;;;;38.77;13.23;;;-0.50;99.90;;;;;;4192814;28;20478;-75
2024/01/12 09:03:15;;;;;;;40.90;13.33;;;-0.50;99.90;;;;;;4190546;28;20957;-77
2024/01/12 09:05:17;;;;;;;32.23;12.60;;;-0.50;99.90;;;;;;4188178;28;20484;-76
2024/01/12 09:07:19;;;;;;;38.10;12.90;;;-0.40;99.90;;;;;;4193355;28;20535;-76
2024/01/12 09:09:22;;;;;;;39.53;13.83;;;-0.50;99.90;;;;;;4192808;28;20516;-75
2024/01/12 09:11:24;;;;;;;31.87;12.27;;;-0.40;99.90;;;;;;4195194;28;20927;-76
2024/01/12 09:13:26;;;;;;;43.17;14.00;;;-0.40;99.90;;;;;;4195937;28;20534;-76
2024/01/12 09:15:28;;;;;;;34.83;12.70;;;-0.40;99.90;;;;;;4194455;28;20470;-80
2024/01/12 09:17:30;;;;;;;41.80;13.67;;;-0.40;99.90;;;;;;4192195;28;20439;-78
2024/01/12 09:19:32;;;;;;;44.40;13.67;;;-0.40;99.90;;;;;;4194590;28;20450;-77
2024/01/12 09:21:34;;;;;;;39.97;13.37;;;-0.30;99.90;;;;;;4188314;28;20671;-76
2024/01/12 09:23:36;;;;;;;45.77;13.70;;;-0.40;99.90;;;;;;4193632;28;20451;-75
2024/01/12 09:25:39;;;;;;;40.77;12.90;;;-0.30;99.90;;;;;;4193446;28;20504;-78
2024/01/12 09:27:41;;;;;;;36.40;12.90;;;-0.30;99.90;;;;;;4193001;28;20562;-76
2024/01/12 09:29:43;;;;;;;31.23;12.37;;;-0.30;99.90;;;;;;4193595;28;20459;-76
2024/01/12 09:31:45;;;;;;;34.27;12.40;;;-0.30;99.90;;;;;;4190788;28;20470;-78
2024/01/12 09:33:47;;;;;;;43.40;13.80;;;-0.30;99.90;;;;;;4193431;28;20480;-77
2024/01/12 09:35:49;;;;;;;38.17;12.83;;;-0.30;99.90;;;;;;4195114;28;20470;-78
2024/01/12 09:37:50;;;;;;;43.30;13.73;;;-0.30;99.90;;;;;;4194971;28;20456;-76
2024/01/12 09:39:52;;;;;;;38.10;13.53;;;-0.30;99.90;;;;;;4193144;28;20463;-76
2024/01/12 09:42:02;;;;;;;42.13;13.70;;;-0.20;99.90;;;;;;4192879;28;20236;-76
2024/01/12 09:44:07;;;;;;;37.23;14.10;;;-0.20;99.90;;;;;;4190042;28;20543;-77
2024/01/12 09:46:10;;;;;;;35.70;12.37;;;-0.20;99.90;;;;;;4191498;28;20528;-79
2024/01/12 09:48:11;;;;;;;39.87;13.90;;;-0.20;99.90;;;;;;4192879;28;20570;-77
2024/01/12 09:50:14;;;;;;;41.37;13.43;;;-0.20;99.90;;;;;;4189568;28;20451;-78
2024/01/12 09:52:16;;;;;;;40.83;13.90;;;-0.20;99.90;;;;;;4192851;28;20457;-77
2024/01/12 09:54:18;;;;;;;40.07;14.00;;;0.30;99.90;;;;;;4192123;28;20448;-76
2024/01/12 09:56:20;;;;;;;53.93;16.37;;;-0.20;99.90;;;;;;4195210;28;21036;-76
2024/01/12 09:58:25;;;;;;;46.10;15.60;;;-0.20;99.90;;;;;;4192642;28;20451;-78
2024/01/12 10:00:29;;;;;;;44.43;15.20;;;-0.20;99.90;;;;;;4191035;28;20442;-77
2024/01/12 10:02:31;;;;;;;57.33;18.97;;;-0.20;99.90;;;;;;4188485;28;20482;-76
2024/01/12 10:04:33;;;;;;;48.77;17.50;;;-0.20;99.90;;;;;;4192065;28;20484;-76
2024/01/12 10:06:35;;;;;;;55.00;17.30;;;-0.20;99.90;;;;;;4189447;28;20507;-76
2024/01/12 10:08:38;;;;;;;49.60;17.00;;;-0.10;99.90;;;;;;4192772;28;20507;-76
2024/01/12 10:10:40;;;;;;;51.03;17.83;;;-0.10;99.90;;;;;;4193332;28;20528;-78
2024/01/12 10:12:49;;;;;;;55.83;18.70;;;-0.10;99.90;;;;;;4191300;28;20480;-76
2024/01/12 10:15:02;;;;;;;58.07;19.10;;;-0.10;99.90;;;;;;4190771;28;20509;-76
2024/01/12 10:17:05;;;;;;;54.47;17.37;;;-0.10;99.90;;;;;;4197396;28;20487;-80
2024/01/12 10:19:06;;;;;;;58.13;18.60;;;-0.10;99.90;;;;;;4209806;28;20450;-78
2024/01/12 10:21:08;;;;;;;56.70;19.20;;;0.20;99.90;;;;;;4200892;28;20455;-78
2024/01/12 10:23:11;;;;;;;54.90;18.07;;;-0.10;99.90;;;;;;4216013;28;20451;-78
2024/01/12 10:25:15;;;;;;;57.10;18.80;;;-0.10;99.90;;;;;;4197825;28;20482;-78